Time;durP1;ratioP1;P1;durP2;ratioP2;P2;SDS_P1;SDS_P2;PMS_P1;PMS_P2;Temp;Humidity;BMP_temperature;BMP_pressure;BME280_temperature;BME280_humidity;BME280_pressure;Samples;Min_cycle;Max_cycle;Signal;HPM_P1;HPM_P2
2023/08/15 00:01:01;;;;;;;4.53;3.17;;;22.10;53.60;;;;;;5051050;28;20895;-53
2023/08/15 00:03:28;;;;;;;5.63;3.00;;;22.00;51.80;;;;;;5056513;28;20437;-52
2023/08/15 00:05:55;;;;;;;8.23;2.57;;;22.00;51.60;;;;;;5056217;28;20995;-54
2023/08/15 00:08:22;;;;;;;15.40;2.97;;;22.00;50.30;;;;;;5057115;28;20568;-53
2023/08/15 00:10:49;;;;;;;5.80;2.80;;;21.90;28.40;;;;;;5053061;28;20492;-52
2023/08/15 00:13:15;;;;;;;4.13;2.83;;;21.50;99.90;;;;;;5053869;28;20490;-54
2023/08/15 00:15:42;;;;;;;7.70;3.20;;;21.30;99.90;;;;;;5052919;28;20485;-52
2023/08/15 00:18:08;;;;;;;5.30;2.90;;;21.10;99.90;;;;;;5045441;28;20531;-53
2023/08/15 00:20:35;;;;;;;7.53;3.03;;;20.90;99.90;;;;;;5053482;28;20503;-52
2023/08/15 00:23:03;;;;;;;10.87;3.13;;;20.90;99.90;;;;;;5053082;28;20466;-51
2023/08/15 00:25:29;;;;;;;5.03;2.60;;;20.80;99.90;;;;;;5052472;28;20943;-54
2023/08/15 00:27:56;;;;;;;12.03;2.50;;;20.70;99.90;;;;;;5052849;28;21054;-52
2023/08/15 00:30:23;;;;;;;5.00;2.20;;;20.60;99.90;;;;;;5051483;28;20493;-52
2023/08/15 00:32:49;;;;;;;8.57;3.33;;;20.60;99.90;;;;;;5052907;28;20956;-53
2023/08/15 00:35:16;;;;;;;6.40;3.00;;;20.60;99.90;;;;;;5051344;28;20537;-53
2023/08/15 00:37:43;;;;;;;14.03;3.53;;;20.60;99.90;;;;;;5053087;28;21049;-52
2023/08/15 00:40:12;;;;;;;8.87;3.00;;;20.50;99.90;;;;;;5052404;28;20490;-53
2023/08/15 00:42:38;;;;;;;13.30;3.17;;;20.50;99.90;;;;;;5054404;28;20434;-52
2023/08/15 00:45:05;;;;;;;6.90;3.17;;;20.50;99.90;;;;;;5044776;28;20546;-54
2023/08/15 00:47:32;;;;;;;9.53;3.23;;;20.50;99.90;;;;;;5049009;28;20501;-52
2023/08/15 00:50:00;;;;;;;12.23;3.97;;;20.50;99.90;;;;;;5051265;28;20978;-53
2023/08/15 00:52:27;;;;;;;7.80;3.43;;;20.50;99.90;;;;;;5049176;28;20442;-53
2023/08/15 00:54:54;;;;;;;12.70;3.70;;;20.40;99.90;;;;;;5050991;28;20545;-52
2023/08/15 00:57:23;;;;;;;6.70;3.83;;;20.40;99.90;;;;;;5053320;28;21223;-53
2023/08/15 00:59:49;;;;;;;6.17;3.00;;;20.40;99.90;;;;;;5051916;28;20577;-56
2023/08/15 01:02:16;;;;;;;4.03;3.03;;;20.40;99.90;;;;;;5054888;28;20896;-51
2023/08/15 01:04:43;;;;;;;11.13;3.77;;;20.30;99.90;;;;;;5049078;28;20549;-52
2023/08/15 01:07:10;;;;;;;11.67;3.90;;;20.40;99.90;;;;;;5052654;28;20561;-53
2023/08/15 01:09:36;;;;;;;7.67;3.40;;;20.40;99.90;;;;;;5052775;28;20966;-52
2023/08/15 01:12:12;;;;;;;7.30;3.57;;;20.30;99.90;;;;;;5051829;28;20462;-53
2023/08/15 01:14:46;;;;;;;7.13;3.30;;;20.20;99.90;;;;;;5050238;28;20523;-54
2023/08/15 01:17:16;;;;;;;4.57;2.20;;;20.20;99.90;;;;;;5052784;28;21192;-52
2023/08/15 01:19:47;;;;;;;4.37;3.03;;;20.10;99.90;;;;;;5050568;28;20513;-52
2023/08/15 01:22:16;;;;;;;4.77;2.83;;;20.10;99.90;;;;;;5052110;28;20484;-52
2023/08/15 01:24:45;;;;;;;5.53;2.87;;;20.10;99.90;;;;;;5050847;28;20523;-52
2023/08/15 01:27:12;;;;;;;12.43;2.60;;;20.20;99.90;;;;;;5052173;28;20508;-51
2023/08/15 01:29:39;;;;;;;3.90;2.77;;;20.10;99.90;;;;;;5049751;28;20614;-52
2023/08/15 01:32:11;;;;;;;3.83;2.53;;;20.10;99.90;;;;;;5052020;28;20561;-53
2023/08/15 01:34:45;;;;;;;6.17;2.40;;;20.10;99.90;;;;;;5051401;28;20584;-51
2023/08/15 01:37:19;;;;;;;17.53;3.10;;;20.10;99.90;;;;;;5046775;28;20478;-52
2023/08/15 01:39:50;;;;;;;3.93;2.57;;;20.10;99.90;;;;;;5053684;28;20501;-53
2023/08/15 01:42:19;;;;;;;16.60;2.83;;;20.10;99.90;;;;;;5050393;28;20480;-53
2023/08/15 01:44:47;;;;;;;5.13;2.93;;;20.10;99.90;;;;;;5052555;28;20485;-52
2023/08/15 01:47:13;;;;;;;4.57;2.77;;;20.10;99.90;;;;;;5054717;28;20512;-52
2023/08/15 01:49:40;;;;;;;5.37;2.97;;;20.10;99.90;;;;;;5052783;28;20488;-53
2023/08/15 01:52:07;;;;;;;7.13;2.93;;;20.10;99.90;;;;;;5052909;28;20488;-52
2023/08/15 01:54:33;;;;;;;3.87;3.10;;;20.10;99.90;;;;;;5051857;28;20469;-52
2023/08/15 01:57:01;;;;;;;6.13;2.90;;;20.10;99.90;;;;;;5049341;28;21011;-52
2023/08/15 01:59:27;;;;;;;10.93;2.83;;;20.10;99.90;;;;;;5045285;28;20569;-53
2023/08/15 02:01:54;;;;;;;3.93;2.37;;;20.10;99.90;;;;;;5052756;28;20517;-53
2023/08/15 02:04:20;;;;;;;5.07;2.10;;;20.10;99.90;;;;;;5050428;28;20493;-51
2023/08/15 02:06:47;;;;;;;3.50;2.40;;;20.00;99.90;;;;;;5041991;28;20489;-53
2023/08/15 02:09:13;;;;;;;4.63;2.17;;;20.00;99.90;;;;;;5043487;28;20496;-52
2023/08/15 02:11:40;;;;;;;2.90;2.10;;;19.90;99.90;;;;;;5052442;28;20488;-53
2023/08/15 02:14:08;;;;;;;2.70;2.20;;;19.90;99.90;;;;;;5050900;28;20902;-52
2023/08/15 02:16:34;;;;;;;4.73;2.03;;;19.90;99.90;;;;;;5048396;28;20518;-51
2023/08/15 02:19:01;;;;;;;5.60;2.73;;;19.90;99.90;;;;;;5050383;28;20577;-54
2023/08/15 02:21:27;;;;;;;4.53;2.30;;;19.90;99.90;;;;;;5046482;28;20490;-52
2023/08/15 02:23:54;;;;;;;3.63;1.77;;;19.90;99.90;;;;;;5048335;28;20488;-52
2023/08/15 02:26:20;;;;;;;4.10;2.20;;;19.90;99.90;;;;;;5051368;28;21003;-53
2023/08/15 02:28:47;;;;;;;5.47;2.77;;;19.80;99.90;;;;;;5047443;28;20591;-53
2023/08/15 02:31:15;;;;;;;2.53;2.17;;;19.90;99.90;;;;;;5050347;28;20490;-52
2023/08/15 02:33:41;;;;;;;8.63;2.30;;;19.90;99.90;;;;;;5049477;28;20462;-51
2023/08/15 02:36:08;;;;;;;3.10;2.43;;;19.80;99.90;;;;;;5047459;28;20485;-52
2023/08/15 02:38:35;;;;;;;2.80;2.20;;;19.80;99.90;;;;;;5051346;28;20573;-52
2023/08/15 02:41:01;;;;;;;4.90;2.50;;;19.80;99.90;;;;;;5051258;28;20504;-53
2023/08/15 02:43:28;;;;;;;3.83;2.50;;;19.70;99.90;;;;;;5049039;28;21077;-52
2023/08/15 02:45:54;;;;;;;3.83;2.20;;;19.70;99.90;;;;;;5047758;28;20518;-53
2023/08/15 02:48:22;;;;;;;2.80;2.30;;;19.70;99.90;;;;;;5048046;28;20512;-52
2023/08/15 02:50:49;;;;;;;2.50;2.27;;;19.60;99.90;;;;;;5051164;28;21040;-53
2023/08/15 02:53:15;;;;;;;5.70;2.80;;;19.60;99.90;;;;;;5050185;28;20536;-52
2023/08/15 02:55:42;;;;;;;4.13;2.73;;;19.60;99.90;;;;;;5045209;28;20542;-51
2023/08/15 02:58:08;;;;;;;6.97;2.50;;;19.60;99.90;;;;;;5046205;28;20545;-53
2023/08/15 03:00:35;;;;;;;3.83;2.33;;;19.60;99.90;;;;;;5046528;28;20589;-52
2023/08/15 03:03:02;;;;;;;4.23;2.93;;;19.50;99.90;;;;;;5050484;28;20466;-53
2023/08/15 03:05:29;;;;;;;3.00;2.37;;;19.50;99.90;;;;;;5049685;28;20592;-52
2023/08/15 03:07:56;;;;;;;2.60;2.40;;;19.50;99.90;;;;;;5049795;28;20510;-51
2023/08/15 03:10:22;;;;;;;3.30;2.40;;;19.50;99.90;;;;;;5051628;28;20521;-52
2023/08/15 03:12:49;;;;;;;2.83;2.40;;;19.40;99.90;;;;;;5050304;28;20497;-54
2023/08/15 03:15:16;;;;;;;6.13;3.80;;;19.40;99.90;;;;;;5049526;28;20489;-53
2023/08/15 03:17:42;;;;;;;4.97;2.73;;;19.40;99.90;;;;;;5051493;28;20505;-50
2023/08/15 03:20:10;;;;;;;3.73;3.20;;;19.40;99.90;;;;;;5044391;28;20895;-49
2023/08/15 03:22:38;;;;;;;5.60;3.57;;;19.40;99.90;;;;;;5049533;28;20458;-51
2023/08/15 03:25:05;;;;;;;6.30;2.93;;;19.30;99.90;;;;;;5041966;28;20537;-50
2023/08/15 03:27:31;;;;;;;5.50;3.80;;;19.40;99.90;;;;;;5044214;28;20565;-50
2023/08/15 03:29:58;;;;;;;5.77;3.03;;;19.30;99.90;;;;;;5047675;28;20548;-52
2023/08/15 03:32:24;;;;;;;3.97;3.27;;;19.30;99.90;;;;;;5049310;28;20490;-49
2023/08/15 03:34:51;;;;;;;6.60;3.37;;;19.20;99.90;;;;;;5049195;28;20465;-50
2023/08/15 03:37:17;;;;;;;5.47;3.77;;;19.20;99.90;;;;;;5044403;28;21084;-50
2023/08/15 03:39:45;;;;;;;4.53;3.20;;;19.20;99.90;;;;;;5054744;28;20481;-51
2023/08/15 03:42:12;;;;;;;3.90;3.50;;;19.20;99.90;;;;;;5053726;28;20565;-50
2023/08/15 03:44:38;;;;;;;9.60;4.40;;;19.10;99.90;;;;;;5054700;28;20441;-50
2023/08/15 03:47:05;;;;;;;5.27;3.57;;;19.10;99.90;;;;;;5055462;28;20453;-50
2023/08/15 03:49:32;;;;;;;3.90;3.60;;;19.10;99.90;;;;;;5055373;28;20887;-50
2023/08/15 03:51:59;;;;;;;4.30;3.90;;;19.20;99.90;;;;;;5054499;28;20465;-50
2023/08/15 03:54:25;;;;;;;4.40;4.00;;;19.10;99.90;;;;;;5053909;28;20473;-50
2023/08/15 03:56:53;;;;;;;8.07;4.13;;;19.10;99.90;;;;;;5054659;28;20511;-50
2023/08/15 03:59:19;;;;;;;8.07;4.00;;;19.10;99.90;;;;;;5054632;28;20577;-50
2023/08/15 04:01:46;;;;;;;3.87;3.30;;;19.10;99.90;;;;;;5054303;28;20971;-50
2023/08/15 04:04:12;;;;;;;3.80;3.00;;;19.10;99.90;;;;;;5053759;28;20552;-51
2023/08/15 04:06:39;;;;;;;6.67;4.03;;;19.10;99.90;;;;;;5053679;28;20508;-50
2023/08/15 04:09:06;;;;;;;4.87;3.37;;;19.10;99.90;;;;;;5045061;28;20550;-52
2023/08/15 04:11:32;;;;;;;9.23;4.50;;;19.00;99.90;;;;;;5053383;28;20462;-51
2023/08/15 04:14:00;;;;;;;8.53;2.80;;;19.00;99.90;;;;;;5054022;28;20532;-51
2023/08/15 04:16:27;;;;;;;3.30;3.00;;;19.10;99.90;;;;;;5053761;28;20557;-50
2023/08/15 04:18:53;;;;;;;7.30;2.90;;;19.00;99.90;;;;;;5046806;28;21005;-50
2023/08/15 04:21:20;;;;;;;8.80;3.10;;;19.00;99.90;;;;;;5048088;28;20489;-50
2023/08/15 04:23:46;;;;;;;2.70;2.50;;;19.00;99.90;;;;;;5052617;28;20509;-50
2023/08/15 04:26:13;;;;;;;5.40;2.90;;;19.00;99.90;;;;;;5053650;28;20485;-50
2023/08/15 04:28:40;;;;;;;4.10;2.70;;;19.10;99.90;;;;;;5054604;28;20438;-50
2023/08/15 04:31:07;;;;;;;4.73;2.43;;;19.10;99.90;;;;;;5053900;28;20536;-50
2023/08/15 04:33:34;;;;;;;5.07;2.87;;;19.10;99.90;;;;;;5053873;28;20458;-50
2023/08/15 04:36:00;;;;;;;3.73;3.07;;;19.10;99.90;;;;;;5054972;28;20489;-50
2023/08/15 04:38:27;;;;;;;5.37;3.10;;;19.10;99.90;;;;;;5054575;28;20434;-50
2023/08/15 04:40:54;;;;;;;8.07;2.67;;;19.20;99.90;;;;;;5054311;28;20959;-50
2023/08/15 04:43:20;;;;;;;8.20;3.00;;;19.20;99.90;;;;;;5054711;28;20530;-50
2023/08/15 04:45:47;;;;;;;6.33;3.43;;;19.20;99.90;;;;;;5053148;28;20473;-51
2023/08/15 04:48:15;;;;;;;6.17;3.50;;;19.20;99.90;;;;;;5049386;28;20933;-50
2023/08/15 04:50:41;;;;;;;4.50;3.90;;;19.20;99.90;;;;;;5034765;28;20862;-50
2023/08/15 04:53:08;;;;;;;10.27;4.23;;;19.20;99.90;;;;;;5036730;28;20494;-50
2023/08/15 04:55:34;;;;;;;5.30;3.60;;;19.20;99.90;;;;;;5044845;28;20824;-51
2023/08/15 04:58:01;;;;;;;4.30;3.83;;;19.30;99.90;;;;;;5052911;28;20489;-51
2023/08/15 05:00:28;;;;;;;4.23;3.83;;;19.30;99.90;;;;;;5052976;28;20474;-51
2023/08/15 05:02:54;;;;;;;16.17;3.87;;;19.30;99.90;;;;;;5052388;28;20551;-51
2023/08/15 05:05:22;;;;;;;5.87;4.53;;;19.30;99.90;;;;;;5052237;28;20481;-50
2023/08/15 05:07:49;;;;;;;6.60;4.07;;;19.30;99.90;;;;;;5051666;28;20573;-51
2023/08/15 05:10:15;;;;;;;3.93;3.63;;;19.30;99.90;;;;;;5049900;28;21034;-51
2023/08/15 05:12:42;;;;;;;5.60;4.03;;;19.30;99.90;;;;;;5053041;28;20538;-50
2023/08/15 05:15:09;;;;;;;4.70;4.27;;;19.40;99.90;;;;;;5052586;28;20529;-51
2023/08/15 05:17:36;;;;;;;10.70;3.70;;;19.40;99.90;;;;;;5053413;28;20469;-51
2023/08/15 05:20:03;;;;;;;6.70;4.20;;;19.40;99.90;;;;;;5053672;28;20577;-50
2023/08/15 05:22:31;;;;;;;7.07;4.50;;;19.50;99.90;;;;;;5047922;28;20480;-50
2023/08/15 05:24:57;;;;;;;7.27;4.80;;;19.50;99.90;;;;;;5050675;28;20951;-51
2023/08/15 05:27:24;;;;;;;8.30;5.00;;;19.50;99.90;;;;;;5053488;28;20544;-51
2023/08/15 05:29:50;;;;;;;11.63;4.73;;;19.60;99.90;;;;;;5053356;28;20473;-51
2023/08/15 05:32:17;;;;;;;8.20;4.80;;;19.60;99.90;;;;;;5054054;28;20529;-51
2023/08/15 05:34:43;;;;;;;10.47;4.27;;;19.60;99.90;;;;;;5052403;28;20488;-52
2023/08/15 05:37:10;;;;;;;6.83;4.53;;;19.60;99.90;;;;;;5052832;28;20517;-52
2023/08/15 05:39:39;;;;;;;6.10;4.60;;;19.60;99.90;;;;;;5053257;28;20512;-51
2023/08/15 05:42:05;;;;;;;6.57;4.60;;;19.60;99.90;;;;;;5053375;28;20680;-50
2023/08/15 05:44:32;;;;;;;8.30;4.83;;;19.70;99.90;;;;;;5051838;28;20998;-51
2023/08/15 05:46:59;;;;;;;7.53;4.60;;;19.70;99.90;;;;;;5053563;28;20458;-51
2023/08/15 05:49:25;;;;;;;8.20;4.87;;;19.80;99.90;;;;;;5053402;28;20478;-50
2023/08/15 05:51:52;;;;;;;5.60;4.93;;;19.80;99.90;;;;;;5051159;28;20557;-51
2023/08/15 05:54:19;;;;;;;13.17;4.80;;;19.90;99.90;;;;;;5045186;28;20458;-50
2023/08/15 05:56:47;;;;;;;10.50;4.90;;;19.90;99.90;;;;;;5052948;28;21019;-50
2023/08/15 05:59:13;;;;;;;12.60;5.47;;;19.90;99.90;;;;;;5051840;28;20474;-51
2023/08/15 06:01:40;;;;;;;8.40;5.00;;;20.00;99.90;;;;;;5053377;28;20448;-51
2023/08/15 06:04:07;;;;;;;7.10;4.50;;;20.00;99.90;;;;;;5051535;28;20837;-50
2023/08/15 06:06:33;;;;;;;4.87;4.00;;;20.00;99.90;;;;;;5052147;28;20576;-50
2023/08/15 06:09:00;;;;;;;5.20;4.13;;;20.00;99.90;;;;;;5052849;28;20503;-51
2023/08/15 06:11:26;;;;;;;18.73;4.60;;;20.10;99.90;;;;;;5052708;28;20438;-51
2023/08/15 06:13:54;;;;;;;5.03;4.33;;;20.10;99.90;;;;;;5051615;28;20493;-51
2023/08/15 06:16:21;;;;;;;7.20;4.67;;;20.20;99.90;;;;;;5052563;28;20544;-50
2023/08/15 06:18:47;;;;;;;6.30;4.10;;;20.20;99.90;;;;;;5052977;28;20489;-50
2023/08/15 06:21:14;;;;;;;6.00;4.27;;;20.20;99.90;;;;;;5047575;28;20574;-50
2023/08/15 06:23:40;;;;;;;4.47;4.03;;;20.20;99.90;;;;;;5047634;28;20493;-52
2023/08/15 06:26:07;;;;;;;4.77;4.27;;;20.30;99.90;;;;;;5052368;28;20894;-51
2023/08/15 06:28:34;;;;;;;4.20;3.80;;;20.30;99.90;;;;;;5052599;28;20481;-51
2023/08/15 06:31:02;;;;;;;5.33;4.13;;;20.30;99.90;;;;;;5052519;28;20438;-50
2023/08/15 06:33:29;;;;;;;6.63;4.80;;;20.30;99.90;;;;;;5051333;28;20549;-51
2023/08/15 06:35:55;;;;;;;5.13;4.27;;;20.40;99.90;;;;;;5049312;28;20581;-50
2023/08/15 06:38:22;;;;;;;5.53;4.33;;;20.40;99.90;;;;;;5052295;28;20439;-52
2023/08/15 06:40:49;;;;;;;4.93;3.83;;;20.40;99.90;;;;;;5052090;28;20982;-50
2023/08/15 06:43:16;;;;;;;7.20;3.50;;;20.40;99.90;;;;;;5051657;28;20494;-51
2023/08/15 06:45:42;;;;;;;5.03;3.27;;;20.40;99.90;;;;;;5051459;28;21013;-51
2023/08/15 06:48:11;;;;;;;9.80;4.30;;;20.40;99.90;;;;;;5052193;28;20442;-49
2023/08/15 06:50:37;;;;;;;4.73;3.73;;;20.50;99.90;;;;;;5047667;28;20458;-51
2023/08/15 06:53:04;;;;;;;10.13;3.60;;;20.50;99.90;;;;;;5049184;28;20594;-51
2023/08/15 06:55:31;;;;;;;4.60;3.47;;;20.50;99.90;;;;;;5051421;28;20473;-51
2023/08/15 06:57:58;;;;;;;4.30;3.20;;;20.60;99.90;;;;;;5052209;28;20501;-52
2023/08/15 07:00:25;;;;;;;3.40;3.10;;;20.70;99.90;;;;;;5051760;28;20573;-52
2023/08/15 07:02:51;;;;;;;6.20;3.47;;;20.70;99.90;;;;;;5051046;28;20465;-54
2023/08/15 07:05:20;;;;;;;4.43;3.07;;;20.80;99.90;;;;;;5044940;28;20975;-52
2023/08/15 07:07:47;;;;;;;5.93;4.00;;;20.80;99.90;;;;;;5048710;28;20466;-52
2023/08/15 07:10:14;;;;;;;8.13;3.30;;;21.10;99.90;;;;;;5051487;28;20521;-50
2023/08/15 07:12:40;;;;;;;3.30;3.00;;;21.20;93.90;;;;;;5051002;28;20469;-52
2023/08/15 07:15:07;;;;;;;3.73;3.23;;;21.20;88.30;;;;;;5048392;28;20458;-50
2023/08/15 07:17:34;;;;;;;5.97;4.17;;;21.40;86.70;;;;;;5050743;28;20508;-52
2023/08/15 07:20:01;;;;;;;5.73;2.97;;;21.60;95.00;;;;;;5050573;28;20571;-51
2023/08/15 07:22:28;;;;;;;4.53;3.33;;;21.70;99.90;;;;;;5052279;28;20442;-50
2023/08/15 07:24:55;;;;;;;2.90;2.63;;;21.60;99.90;;;;;;5049425;28;20945;-51
2023/08/15 07:27:22;;;;;;;3.63;2.67;;;21.50;99.90;;;;;;5067976;28;20462;-50
2023/08/15 07:29:48;;;;;;;6.03;3.27;;;21.60;99.90;;;;;;5062716;28;20469;-51
2023/08/15 07:32:15;;;;;;;7.43;3.83;;;21.70;99.90;;;;;;5061260;28;20441;-52
2023/08/15 07:34:41;;;;;;;4.53;3.30;;;21.80;99.90;;;;;;5046647;28;20486;-53
2023/08/15 07:37:08;;;;;;;4.07;2.77;;;21.80;99.90;;;;;;5044985;28;20478;-52
2023/08/15 07:39:36;;;;;;;5.47;3.50;;;21.80;99.90;;;;;;5040025;28;20536;-51
2023/08/15 07:42:02;;;;;;;4.57;3.50;;;21.80;99.90;;;;;;5051554;28;20911;-51
2023/08/15 07:44:30;;;;;;;4.43;3.30;;;21.80;99.90;;;;;;5051048;28;20892;-51
2023/08/15 07:46:56;;;;;;;3.37;2.60;;;21.90;99.90;;;;;;5051633;28;20473;-51
2023/08/15 07:49:23;;;;;;;5.40;2.90;;;21.90;99.90;;;;;;5056976;28;20469;-51
2023/08/15 07:51:49;;;;;;;3.93;2.80;;;22.00;99.90;;;;;;5063121;28;20438;-51
2023/08/15 07:54:16;;;;;;;3.90;2.97;;;22.10;99.90;;;;;;5051577;28;20516;-51
2023/08/15 07:56:44;;;;;;;6.10;3.60;;;22.30;99.90;;;;;;5051601;28;20497;-50
2023/08/15 07:59:11;;;;;;;3.20;2.50;;;22.40;99.90;;;;;;5050753;28;20492;-51
2023/08/15 08:01:37;;;;;;;14.20;3.10;;;22.50;99.90;;;;;;5051395;28;21002;-50
2023/08/15 08:04:04;;;;;;;6.60;2.47;;;22.60;99.90;;;;;;5046775;28;20516;-52
2023/08/15 08:06:31;;;;;;;2.73;2.53;;;22.60;99.90;;;;;;5046655;28;20493;-51
2023/08/15 08:08:58;;;;;;;5.43;3.03;;;22.80;99.90;;;;;;5050599;28;20501;-50
2023/08/15 08:11:25;;;;;;;3.10;2.60;;;22.90;99.90;;;;;;5051463;28;20434;-52
2023/08/15 08:13:53;;;;;;;8.77;2.90;;;23.00;99.90;;;;;;5050590;28;20485;-52
2023/08/15 08:16:21;;;;;;;4.50;2.57;;;23.10;99.90;;;;;;5050353;28;20517;-51
2023/08/15 08:18:48;;;;;;;4.10;2.97;;;23.10;99.90;;;;;;5047942;28;20849;-53
2023/08/15 08:21:14;;;;;;;5.83;2.90;;;23.20;99.90;;;;;;5051237;28;20933;-53
2023/08/15 08:23:41;;;;;;;6.37;3.03;;;23.30;99.90;;;;;;5053821;28;21032;-53
2023/08/15 08:26:07;;;;;;;9.13;3.97;;;23.40;80.30;;;;;;5053238;28;20485;-54
2023/08/15 08:28:34;;;;;;;2.80;2.60;;;23.50;99.90;;;;;;5054719;28;20513;-53
2023/08/15 08:31:02;;;;;;;5.83;3.00;;;23.60;99.90;;;;;;5054578;28;20438;-53
2023/08/15 08:33:29;;;;;;;4.33;2.60;;;23.70;40.00;;;;;;5054569;28;21001;-53
2023/08/15 08:35:56;;;;;;;2.70;2.50;;;23.80;65.30;;;;;;5040887;28;20482;-53
2023/08/15 08:38:22;;;;;;;3.77;2.60;;;23.80;96.70;;;;;;5054417;28;20870;-55
2023/08/15 08:40:49;;;;;;;3.50;3.20;;;23.90;46.20;;;;;;5053932;28;20565;-54
2023/08/15 08:43:16;;;;;;;13.77;2.47;;;24.10;72.00;;;;;;5054606;28;20478;-53
2023/08/15 08:45:47;;;;;;;4.40;2.90;;;24.10;23.20;;;;;;5052853;28;20994;-54
2023/08/15 08:48:17;;;;;;;9.80;3.60;;;24.30;37.10;;;;;;5047293;28;20473;-53
2023/08/15 08:50:45;;;;;;;5.73;3.20;;;24.30;77.30;;;;;;5045237;28;20914;-54
2023/08/15 08:53:11;;;;;;;4.50;2.80;;;24.50;50.80;;;;;;5054415;28;20529;-53
2023/08/15 08:55:40;;;;;;;3.23;2.90;;;24.60;75.80;;;;;;5053057;28;20544;-53
2023/08/15 08:58:11;;;;;;;12.13;3.10;;;24.70;81.10;;;;;;5047876;28;20543;-53
2023/08/15 09:00:39;;;;;;;3.47;2.70;;;24.80;44.00;;;;;;5053483;28;20513;-53
2023/08/15 09:03:06;;;;;;;5.80;3.10;;;24.90;64.80;;;;;;5054539;28;20448;-54
2023/08/15 09:05:34;;;;;;;3.80;2.57;;;24.90;77.40;;;;;;5046889;28;20521;-54
2023/08/15 09:08:01;;;;;;;6.53;3.27;;;25.10;84.60;;;;;;5052686;28;21043;-53
2023/08/15 09:10:28;;;;;;;2.97;2.47;;;25.20;96.70;;;;;;5053998;28;20450;-53
2023/08/15 09:12:58;;;;;;;3.93;2.40;;;25.50;99.90;;;;;;5053705;28;21189;-54
2023/08/15 09:15:25;;;;;;;4.83;2.73;;;25.70;99.90;;;;;;5041689;28;20576;-54
2023/08/15 09:17:58;;;;;;;3.53;2.53;;;25.80;99.90;;;;;;5051711;28;20553;-53
2023/08/15 09:20:25;;;;;;;3.60;2.70;;;26.00;99.90;;;;;;5046789;28;21028;-55
2023/08/15 09:22:56;;;;;;;14.80;2.77;;;26.10;99.90;;;;;;5051428;28;20446;-53
2023/08/15 09:25:26;;;;;;;4.20;2.90;;;26.30;99.90;;;;;;5052226;28;20462;-53
2023/08/15 09:27:53;;;;;;;3.27;2.80;;;26.60;99.90;;;;;;5045195;28;21076;-53
2023/08/15 09:30:21;;;;;;;3.70;3.17;;;26.70;99.90;;;;;;5052346;28;20572;-53
2023/08/15 09:32:48;;;;;;;4.67;2.90;;;26.70;99.90;;;;;;5053065;28;20473;-53
2023/08/15 09:35:16;;;;;;;2.73;2.50;;;26.50;99.90;;;;;;5051153;28;20458;-53
2023/08/15 09:37:44;;;;;;;4.80;2.60;;;26.30;99.90;;;;;;5053202;28;20458;-52
2023/08/15 09:40:15;;;;;;;2.97;2.77;;;26.20;99.90;;;;;;5053311;28;20454;-53
2023/08/15 09:42:43;;;;;;;4.57;2.67;;;26.10;99.90;;;;;;5053505;28;20849;-52
2023/08/15 09:45:11;;;;;;;3.83;2.83;;;26.20;99.90;;;;;;5051881;28;20462;-51
2023/08/15 09:47:39;;;;;;;4.30;3.10;;;26.20;99.90;;;;;;5052234;28;20560;-51
2023/08/15 09:50:08;;;;;;;4.90;2.90;;;26.20;99.90;;;;;;5048671;28;20558;-51
2023/08/15 09:52:38;;;;;;;4.10;3.17;;;26.20;99.90;;;;;;5048893;28;20438;-52
2023/08/15 09:55:07;;;;;;;4.90;3.07;;;26.20;99.90;;;;;;5051703;28;20477;-52
2023/08/15 09:57:36;;;;;;;3.80;3.37;;;26.90;99.90;;;;;;5052758;28;20548;-52
2023/08/15 10:00:04;;;;;;;6.60;3.07;;;27.20;99.90;;;;;;5052677;28;20469;-50
2023/08/15 10:02:31;;;;;;;6.70;3.20;;;27.00;99.90;;;;;;5052751;28;20509;-51
2023/08/15 10:05:01;;;;;;;4.73;3.70;;;26.70;99.90;;;;;;5049050;28;20555;-51
2023/08/15 10:07:31;;;;;;;4.40;3.10;;;26.60;99.90;;;;;;5052618;28;20469;-51
2023/08/15 10:10:00;;;;;;;3.60;3.30;;;26.40;99.90;;;;;;5052758;28;20485;-52
2023/08/15 10:12:28;;;;;;;9.33;4.10;;;26.30;99.90;;;;;;5051913;28;20544;-51
2023/08/15 10:14:57;;;;;;;4.23;3.93;;;26.20;1.40;;;;;;5042571;28;20968;-51
2023/08/15 10:17:24;;;;;;;5.00;4.40;;;26.00;99.90;;;;;;5050916;28;20505;-52
2023/08/15 10:19:51;;;;;;;4.80;3.83;;;26.00;99.90;;;;;;5050494;28;20489;-50
2023/08/15 10:22:19;;;;;;;6.30;3.53;;;25.90;99.90;;;;;;5046116;28;20577;-52
2023/08/15 10:24:45;;;;;;;8.40;3.57;;;25.80;99.90;;;;;;5068295;28;20955;-52
2023/08/15 10:27:13;;;;;;;10.13;3.67;;;25.70;99.90;;;;;;5065107;28;20462;-52
2023/08/15 10:29:53;;;;;;;3.87;3.43;;;25.70;99.90;;;;;;5070549;28;20814;-51
2023/08/15 10:32:26;;;;;;;8.70;4.07;;;25.70;99.90;;;;;;5065928;28;20449;-52
2023/08/15 10:34:54;;;;;;;12.17;4.60;;;25.60;99.90;;;;;;5049523;28;20469;-53
2023/08/15 10:37:29;;;;;;;6.07;3.43;;;25.70;99.90;;;;;;5049528;28;20485;-50
2023/08/15 10:40:07;;;;;;;8.13;3.83;;;25.80;99.90;;;;;;5050555;28;20458;-51
2023/08/15 10:43:10;;;;;;;4.30;3.90;;;25.80;99.90;;;;;;5052571;28;20612;-51
2023/08/15 10:45:37;;;;;;;5.57;4.53;;;25.90;99.90;;;;;;5049803;28;20465;-52
2023/08/15 10:48:06;;;;;;;4.73;4.13;;;25.90;99.90;;;;;;5051926;28;20438;-51
2023/08/15 10:50:33;;;;;;;5.47;3.80;;;26.30;99.90;;;;;;5051073;28;20497;-50
2023/08/15 10:53:01;;;;;;;5.93;3.90;;;27.20;99.90;;;;;;5051984;28;21147;-52
2023/08/15 10:55:29;;;;;;;6.87;5.07;;;27.90;99.90;;;;;;5050716;28;20497;-51
2023/08/15 10:57:56;;;;;;;6.90;4.47;;;28.60;99.90;;;;;;5051055;28;20513;-52
2023/08/15 11:00:23;;;;;;;4.87;4.50;;;29.70;99.90;;;;;;5051005;28;20499;-50
2023/08/15 11:02:49;;;;;;;5.00;4.37;;;30.40;35.70;;;;;;5051715;28;20489;-52
2023/08/15 11:05:19;;;;;;;5.43;3.60;;;30.60;39.50;;;;;;5041111;28;20540;-52
2023/08/15 11:07:46;;;;;;;6.73;4.33;;;31.20;79.70;;;;;;5042909;28;20474;-50
2023/08/15 11:10:12;;;;;;;4.07;3.63;;;32.30;91.00;;;;;;5051697;28;20482;-52
2023/08/15 11:12:47;;;;;;;6.93;4.10;;;32.20;96.30;;;;;;5051736;28;20470;-52
2023/08/15 11:15:14;;;;;;;4.80;3.77;;;32.50;93.40;;;;;;5050977;28;20464;-51
2023/08/15 11:17:41;;;;;;;11.20;4.03;;;32.10;99.90;;;;;;5047329;28;20524;-51
2023/08/15 11:20:10;;;;;;;7.40;4.07;;;31.70;99.90;;;;;;5043319;28;20521;-52
2023/08/15 11:22:38;;;;;;;5.80;3.70;;;32.90;99.90;;;;;;5042674;28;20581;-52
2023/08/15 11:25:07;;;;;;;4.67;3.60;;;33.70;99.90;;;;;;5050786;28;20477;-52
2023/08/15 11:27:39;;;;;;;4.13;3.80;;;33.40;99.90;;;;;;5043432;28;20996;-51
2023/08/15 11:30:07;;;;;;;6.90;3.20;;;32.30;99.90;;;;;;5051197;28;20518;-51
2023/08/15 11:32:35;;;;;;;3.40;3.17;;;31.80;99.90;;;;;;5043390;28;21012;-51
2023/08/15 11:35:01;;;;;;;6.70;3.43;;;31.20;99.90;;;;;;5049770;28;20470;-50
2023/08/15 11:37:28;;;;;;;5.80;3.50;;;30.60;95.30;;;;;;5049696;28;20872;-51
2023/08/15 11:39:56;;;;;;;3.70;3.13;;;30.50;91.30;;;;;;5051222;28;20482;-55
2023/08/15 11:42:23;;;;;;;6.43;3.90;;;30.60;89.60;;;;;;5051302;28;20513;-51
2023/08/15 11:45:01;;;;;;;7.27;3.57;;;30.60;99.90;;;;;;5050493;28;20524;-52
2023/08/15 11:47:30;;;;;;;10.23;4.03;;;30.60;93.50;;;;;;5049796;28;20505;-51
2023/08/15 11:49:56;;;;;;;15.70;4.50;;;30.30;85.10;;;;;;5050951;28;21007;-51
2023/08/15 11:52:23;;;;;;;13.30;3.40;;;30.10;89.00;;;;;;5044799;28;20547;-50
2023/08/15 11:54:50;;;;;;;3.50;3.20;;;29.90;83.60;;;;;;5048324;28;20517;-51
2023/08/15 11:57:34;;;;;;;8.03;4.10;;;29.90;72.50;;;;;;5048412;28;20609;-53
2023/08/15 12:00:01;;;;;;;9.00;3.60;;;30.00;93.50;;;;;;5054088;28;20916;-50
2023/08/15 12:02:27;;;;;;;3.90;3.10;;;29.70;95.40;;;;;;5055066;28;20512;-51
2023/08/15 12:04:54;;;;;;;14.00;3.70;;;29.70;99.90;;;;;;5053262;28;20940;-52
2023/08/15 12:07:20;;;;;;;2.90;2.70;;;30.00;99.90;;;;;;5051106;28;20568;-51
2023/08/15 12:09:47;;;;;;;11.63;3.87;;;30.00;99.90;;;;;;5047979;28;20493;-51
2023/08/15 12:12:19;;;;;;;16.57;3.70;;;30.00;99.90;;;;;;5055008;28;20500;-52
2023/08/15 12:14:45;;;;;;;4.30;3.07;;;30.10;99.90;;;;;;5054213;28;20520;-51
2023/08/15 12:17:12;;;;;;;3.30;2.97;;;30.20;99.90;;;;;;5052056;28;20573;-51
2023/08/15 12:19:39;;;;;;;11.87;4.07;;;30.20;99.90;;;;;;5054574;28;20445;-55
2023/08/15 12:22:05;;;;;;;6.20;3.50;;;30.20;99.90;;;;;;5052334;28;20513;-51
2023/08/15 12:24:32;;;;;;;5.70;3.50;;;30.20;99.90;;;;;;5053770;28;20545;-51
2023/08/15 12:26:58;;;;;;;9.07;3.60;;;30.40;99.90;;;;;;5054580;28;20465;-52
2023/08/15 12:29:27;;;;;;;9.80;4.07;;;30.40;99.90;;;;;;5054565;28;20438;-51
2023/08/15 12:31:53;;;;;;;10.60;3.77;;;30.50;99.90;;;;;;5052936;28;20511;-52
2023/08/15 12:34:20;;;;;;;3.97;3.60;;;30.40;99.90;;;;;;5052639;28;20504;-51
2023/08/15 12:36:46;;;;;;;13.23;4.10;;;30.60;99.90;;;;;;5054863;28;20482;-51
2023/08/15 12:39:15;;;;;;;5.17;4.10;;;30.50;99.90;;;;;;5057179;28;20469;-51
2023/08/15 12:41:42;;;;;;;4.60;3.60;;;30.40;99.90;;;;;;5055609;28;21053;-51
2023/08/15 12:44:08;;;;;;;9.40;4.10;;;30.30;99.90;;;;;;5047145;28;20481;-51
2023/08/15 12:46:36;;;;;;;6.53;4.27;;;31.00;99.90;;;;;;5054268;28;21148;-52